Time;durP1;ratioP1;P1;durP2;ratioP2;P2;SDS_P1;SDS_P2;PMS_P1;PMS_P2;Temp;Humidity;BMP_temperature;BMP_pressure;BME280_temperature;BME280_humidity;BME280_pressure;Samples;Min_cycle;Max_cycle;Signal;HPM_P1;HPM_P2
2021/01/08 00:00:22;;;;;;;9.10;4.90;;;;;;;6.76;89.44;100376.53;1640617;87;21622;-88
2021/01/08 00:02:48;;;;;;;13.10;5.47;;;;;;;6.70;89.61;100380.17;1638139;87;20934;-88
2021/01/08 00:05:14;;;;;;;7.40;4.35;;;;;;;6.67;89.19;100384.13;1640688;87;21116;-88
2021/01/08 00:07:40;;;;;;;8.33;4.58;;;;;;;6.72;87.89;100372.72;1640670;87;21616;-89
2021/01/08 00:10:09;;;;;;;10.03;4.85;;;;;;;6.74;88.05;100371.96;1616351;87;21616;-89
2021/01/08 00:12:36;;;;;;;10.72;4.45;;;;;;;6.42;86.88;100372.95;1640672;87;21628;-88
2021/01/08 00:15:07;;;;;;;13.95;4.20;;;;;;;6.47;87.78;100375.20;1640619;87;21320;-89
2021/01/08 00:17:33;;;;;;;11.30;5.20;;;;;;;6.26;87.44;100378.50;1640584;87;21219;-88
2021/01/08 00:19:59;;;;;;;16.57;5.60;;;;;;;6.26;87.86;100378.50;1640612;87;21517;-88
2021/01/08 00:22:26;;;;;;;13.43;5.78;;;;;;;6.28;88.57;100377.22;1629826;87;21617;-89
2021/01/08 00:24:52;;;;;;;17.87;6.78;;;;;;;6.17;88.14;100390.09;1628235;88;21152;-89
2021/01/08 00:27:20;;;;;;;18.45;7.17;;;;;;;6.04;86.63;100391.70;1604329;88;21199;-89
2021/01/08 00:29:46;;;;;;;18.77;7.75;;;;;;;6.08;87.94;100398.20;1627997;88;21152;-89
2021/01/08 00:32:12;;;;;;;16.75;6.53;;;;;;;5.98;87.58;100405.48;1628334;88;21199;-89
2021/01/08 00:34:39;;;;;;;25.50;6.47;;;;;;;5.95;87.13;100408.63;1628280;88;21277;-88
2021/01/08 00:37:06;;;;;;;19.60;6.58;;;;;;;5.96;86.49;100424.15;1628341;88;21160;-89
2021/01/08 00:39:32;;;;;;;23.32;7.58;;;;;;;5.97;87.14;100417.74;1628276;88;21097;-88
2021/01/08 00:41:58;;;;;;;25.52;8.23;;;;;;;5.83;86.17;100434.01;1628222;88;21577;-88
2021/01/08 00:44:24;;;;;;;24.20;7.62;;;;;;;5.76;86.69;100433.29;1628170;88;21176;-89
2021/01/08 00:46:51;;;;;;;21.23;6.97;;;;;;;5.85;86.76;100427.91;1628270;88;20969;-89
2021/01/08 00:49:19;;;;;;;20.82;6.90;;;;;;;5.66;84.80;100431.20;1628215;88;21204;-89
2021/01/08 00:51:45;;;;;;;14.60;4.92;;;;;;;5.68;86.20;100443.02;1628317;88;21160;-90
2021/01/08 00:54:11;;;;;;;9.78;3.70;;;;;;;5.64;85.95;100441.83;1628203;88;21168;-89
2021/01/08 00:56:37;;;;;;;13.43;3.65;;;;;;;5.67;86.17;100445.38;1628331;88;21945;-88
2021/01/08 00:59:03;;;;;;;11.33;3.50;;;;;;;5.63;85.46;100454.39;1628104;88;20981;-88
2021/01/08 01:01:30;;;;;;;10.63;3.87;;;;;;;5.62;85.81;100453.30;1628325;88;21144;-89
2021/01/08 01:03:56;;;;;;;7.67;2.87;;;;;;;5.58;85.85;100451.58;1628300;88;21176;-89
2021/01/08 01:06:25;;;;;;;12.03;3.33;;;;;;;5.65;86.36;100453.64;1628247;88;21660;-90
2021/01/08 01:08:52;;;;;;;8.75;3.27;;;;;;;5.51;85.39;100466.92;1628269;88;21701;-90
2021/01/08 01:11:19;;;;;;;6.25;2.62;;;;;;;5.56;85.97;100474.23;1628150;88;21207;-90
2021/01/08 01:13:47;;;;;;;5.85;2.27;;;;;;;5.50;86.25;100480.00;1628227;88;21236;-88
2021/01/08 01:16:15;;;;;;;4.80;2.30;;;;;;;5.45;85.69;100466.50;1628241;88;21537;-90
2021/01/08 01:18:46;;;;;;;4.80;2.10;;;;;;;5.38;86.26;100477.30;1628306;88;21622;-89
2021/01/08 01:21:12;;;;;;;5.70;2.33;;;;;;;5.30;85.70;100472.27;1628160;85;21432;-89
2021/01/08 01:23:38;;;;;;;3.92;1.75;;;;;;;5.41;86.16;100486.69;1628237;88;21148;-90
2021/01/08 01:26:05;;;;;;;2.70;1.47;;;;;;;5.38;86.15;100493.33;1628164;88;21613;-89
2021/01/08 01:28:33;;;;;;;3.27;1.45;;;;;;;5.40;86.43;100485.88;1628250;88;21581;-89
2021/01/08 01:30:59;;;;;;;4.08;1.40;;;;;;;5.39;86.27;100486.94;1628183;88;21160;-89
2021/01/08 01:33:25;;;;;;;3.55;1.60;;;;;;;5.30;85.98;100483.48;1628259;88;21152;-89
2021/01/08 01:35:52;;;;;;;3.45;1.65;;;;;;;5.39;86.17;100485.59;1604488;88;21179;-89
2021/01/08 01:38:19;;;;;;;2.25;1.10;;;;;;;5.31;86.26;100499.27;1628026;88;21613;-89
2021/01/08 01:40:45;;;;;;;2.52;1.25;;;;;;;5.23;85.57;100508.44;1628028;88;21592;-89
2021/01/08 01:43:11;;;;;;;0.78;0.68;;;;;;;5.37;85.74;100495.69;1628230;88;21096;-89
2021/01/08 01:45:37;;;;;;;0.68;0.60;;;;;;;5.38;85.25;100510.70;1628204;88;21258;-89
2021/01/08 01:48:04;;;;;;;1.62;0.80;;;;;;;5.26;84.87;100517.02;1628202;88;21053;-89
2021/01/08 01:50:31;;;;;;;1.17;0.80;;;;;;;5.30;85.24;100510.20;1628309;88;21176;-89
2021/01/08 01:52:57;;;;;;;1.35;0.80;;;;;;;5.30;86.09;100516.36;1628281;88;21233;-89
2021/01/08 01:55:23;;;;;;;1.05;0.60;;;;;;;5.33;85.78;100518.58;1628219;88;21206;-89
2021/01/08 01:57:51;;;;;;;1.27;0.80;;;;;;;5.28;85.40;100510.42;1628347;88;21945;-89
2021/01/08 02:00:19;;;;;;;1.50;0.80;;;;;;;5.31;85.66;100517.98;1628163;88;21224;-90
2021/01/08 02:02:52;;;;;;;2.90;1.40;;;;;;;5.33;86.00;100521.25;1628275;88;21195;-89
2021/01/08 02:05:20;;;;;;;3.35;1.52;;;;;;;5.35;86.30;100519.14;1628278;88;21213;-90
2021/01/08 02:07:58;;;;;;;7.50;2.33;;;;;;;5.33;86.38;100530.59;1628272;88;21137;-89
2021/01/08 02:10:27;;;;;;;9.53;3.20;;;;;;;5.32;86.11;100534.81;1603480;89;21458;-89
2021/01/08 02:12:57;;;;;;;10.80;4.20;;;;;;;5.33;85.98;100536.47;1603811;89;21293;-89
2021/01/08 02:15:25;;;;;;;10.75;4.08;;;;;;;5.33;84.89;100542.63;1603768;89;21762;-89
2021/01/08 02:17:50;;;;;;;11.00;3.20;;;;;;;5.37;85.90;100554.48;1603753;89;21203;-90
2021/01/08 02:20:17;;;;;;;7.28;3.33;;;;;;;5.32;85.54;100554.33;1603727;89;21136;-89
2021/01/08 02:22:52;;;;;;;8.75;3.05;;;;;;;5.33;85.18;100560.52;1604474;88;39178;-90
2021/01/08 02:25:27;;;;;;;6.62;2.47;;;;;;;5.33;85.30;100564.52;1605055;89;21211;-89
2021/01/08 02:28:16;;;;;;;7.75;2.87;;;;;;;5.34;85.86;100566.14;1587410;88;21194;-89
2021/01/08 02:30:44;;;;;;;7.12;3.25;;;;;;;5.33;85.46;100567.20;1587635;90;21186;-89
2021/01/08 02:33:11;;;;;;;8.90;3.17;;;;;;;5.37;85.61;100563.83;1587857;90;21159;-89
2021/01/08 02:35:37;;;;;;;8.75;3.20;;;;;;;5.37;84.46;100567.84;1587752;90;21261;-90
2021/01/08 02:38:05;;;;;;;8.20;3.47;;;;;;;5.26;83.95;100567.26;1567136;90;21290;-90
2021/01/08 02:40:32;;;;;;;8.25;2.67;;;;;;;5.26;84.09;100565.11;1587813;90;21199;-89
2021/01/08 02:43:03;;;;;;;5.25;2.60;;;;;;;5.32;84.89;100571.70;1587809;90;21247;-90
2021/01/08 02:45:31;;;;;;;5.75;2.70;;;;;;;5.28;84.33;100567.05;1587646;90;21237;-90
2021/01/08 02:47:57;;;;;;;5.20;2.40;;;;;;;5.33;84.64;100580.03;1587111;90;21356;-90
2021/01/08 02:50:23;;;;;;;7.87;2.62;;;;;;;5.32;84.10;100581.58;1571244;90;21222;-90
2021/01/08 02:52:57;;;;;;;8.60;3.85;;;;;;;5.30;83.87;100589.83;1571484;90;21687;-89
2021/01/08 02:55:32;;;;;;;13.40;4.08;;;;;;;5.27;84.15;100601.50;1592003;90;21181;-90
2021/01/08 02:58:01;;;;;;;12.82;3.92;;;;;;;5.29;84.77;100598.06;1592048;90;21241;-90
2021/01/08 03:00:30;;;;;;;11.48;4.28;;;;;;;5.29;85.15;100593.52;1560812;90;21298;-89
2021/01/08 03:02:58;;;;;;;14.33;4.03;;;;;;;5.30;85.39;100593.84;1523287;94;21283;-89
2021/01/08 03:05:27;;;;;;;8.40;3.60;;;;;;;5.28;85.22;100595.91;1523347;94;21217;-90
2021/01/08 03:07:52;;;;;;;8.83;3.62;;;;;;;5.27;85.16;100603.64;1523211;92;21276;-90
2021/01/08 03:10:18;;;;;;;7.53;3.45;;;;;;;5.22;84.10;100605.64;1523174;94;21149;-90
2021/01/08 03:12:49;;;;;;;8.68;3.67;;;;;;;5.35;85.31;100608.66;1523311;94;21298;-89
2021/01/08 03:15:15;;;;;;;5.58;3.02;;;;;;;5.33;84.71;100600.59;1481840;96;21426;-91
2021/01/08 03:17:41;;;;;;;7.72;3.33;;;;;;;5.26;84.24;100601.18;1484671;96;21116;-90
2021/01/08 03:20:08;;;;;;;6.40;3.22;;;;;;;5.27;84.20;100601.50;1466701;96;21050;-90
2021/01/08 03:22:34;;;;;;;6.42;2.45;;;;;;;5.16;84.16;100600.38;1480082;96;21283;-90
2021/01/08 03:25:00;;;;;;;9.45;2.70;;;;;;;5.24;83.90;100594.74;1466685;97;21647;-90
2021/01/08 03:27:25;;;;;;;6.58;3.10;;;;;;;5.16;83.49;100607.06;1473204;97;21159;-89
2021/01/08 03:29:51;;;;;;;7.05;3.00;;;;;;;5.16;83.49;100607.06;1473420;97;21143;-90
2021/01/08 03:32:17;;;;;;;5.10;2.40;;;;;;;5.12;83.16;100614.70;1473383;97;20985;-89
2021/01/08 03:34:43;;;;;;;4.33;2.80;;;;;;;5.22;83.53;100618.19;1473494;97;21198;-89
2021/01/08 03:37:09;;;;;;;3.58;2.30;;;;;;;5.19;83.71;100621.30;1473370;97;21261;-89
2021/01/08 03:39:34;;;;;;;4.80;2.50;;;;;;;5.22;83.31;100616.32;1450541;98;21723;-90
2021/01/08 03:42:00;;;;;;;4.47;2.75;;;;;;;5.13;82.79;100620.86;1450680;98;21028;-91
2021/01/08 03:44:26;;;;;;;7.58;3.17;;;;;;;5.20;83.74;100622.92;1450764;98;20965;-90
2021/01/08 03:46:52;;;;;;;8.58;2.80;;;;;;;5.15;83.33;100634.30;1450666;98;21067;-90
2021/01/08 03:49:17;;;;;;;6.67;3.12;;;;;;;5.13;82.46;100624.34;1450751;98;21909;-92
2021/01/08 03:51:43;;;;;;;7.42;3.05;;;;;;;5.14;83.92;100630.50;1450682;98;21024;-89
2021/01/08 03:54:10;;;;;;;6.30;3.22;;;;;;;5.21;83.61;100628.59;1486500;94;20967;-90
2021/01/08 03:56:35;;;;;;;6.08;3.30;;;;;;;5.22;83.98;100631.54;1518456;93;21207;-90
2021/01/08 03:59:01;;;;;;;5.12;2.87;;;;;;;5.19;84.23;100632.80;1527559;93;21228;-90
2021/01/08 04:01:27;;;;;;;5.15;3.20;;;;;;;5.19;84.23;100632.80;1527429;93;21652;-89
2021/01/08 04:03:53;;;;;;;6.92;3.20;;;;;;;5.20;84.32;100633.09;1538256;92;21001;-90
2021/01/08 04:06:19;;;;;;;6.78;2.92;;;;;;;5.16;83.94;100641.78;1567013;91;21092;-91
2021/01/08 04:08:45;;;;;;;6.35;3.30;;;;;;;5.25;83.52;100648.45;1567149;91;21717;-89
2021/01/08 04:11:10;;;;;;;6.33;3.17;;;;;;;5.09;83.75;100647.70;1572921;88;21208;-90
2021/01/08 04:13:36;;;;;;;8.65;3.40;;;;;;;5.10;84.07;100654.17;1587301;90;21264;-91
2021/01/08 04:16:03;;;;;;;9.05;4.15;;;;;;;5.08;84.19;100656.77;1587351;90;21153;-90
2021/01/08 04:18:29;;;;;;;8.35;4.08;;;;;;;5.13;84.19;100654.25;1587293;90;21240;-90
2021/01/08 04:20:54;;;;;;;12.07;4.35;;;;;;;5.10;84.05;100661.38;1587218;90;20990;-91
2021/01/08 04:23:20;;;;;;;10.60;4.62;;;;;;;5.17;83.91;100670.12;1605751;89;21052;-90
2021/01/08 04:25:46;;;;;;;9.00;4.17;;;;;;;5.04;83.83;100668.42;1612712;89;21279;-90
2021/01/08 04:28:12;;;;;;;9.48;4.40;;;;;;;5.04;83.70;100663.08;1591336;89;20998;-90
2021/01/08 04:30:38;;;;;;;9.63;4.42;;;;;;;5.09;84.16;100667.73;1612610;89;21698;-90
2021/01/08 04:33:04;;;;;;;12.88;5.35;;;;;;;5.03;83.68;100663.28;1612577;89;20995;-90
2021/01/08 04:35:30;;;;;;;8.95;4.60;;;;;;;5.00;83.52;100668.05;1612681;89;21161;-90
2021/01/08 04:37:56;;;;;;;11.15;4.50;;;;;;;5.04;83.46;100672.42;1626078;87;21221;-89
2021/01/08 04:40:21;;;;;;;11.10;5.22;;;;;;;4.94;82.68;100670.27;1647716;87;20947;-90
2021/01/08 04:42:47;;;;;;;14.93;5.53;;;;;;;4.99;83.63;100662.91;1647700;86;20986;-90
2021/01/08 04:45:14;;;;;;;12.50;5.37;;;;;;;4.98;83.40;100670.11;1647630;87;20970;-90
2021/01/08 04:47:40;;;;;;;10.23;4.92;;;;;;;4.92;82.94;100671.52;1647733;87;21618;-90
2021/01/08 04:50:07;;;;;;;10.55;4.55;;;;;;;4.99;82.62;100674.41;1647647;86;21276;-91
2021/01/08 04:52:33;;;;;;;9.35;4.53;;;;;;;4.85;82.43;100688.92;1647627;87;21239;-90
2021/01/08 04:55:00;;;;;;;10.50;4.65;;;;;;;4.90;83.28;100681.07;1625020;87;20998;-90
2021/01/08 04:57:28;;;;;;;10.93;4.40;;;;;;;4.90;83.07;100680.27;1647703;86;21072;-91
2021/01/08 04:59:54;;;;;;;13.62;4.70;;;;;;;4.88;83.13;100687.66;1647611;87;21144;-91
2021/01/08 05:02:20;;;;;;;12.05;4.30;;;;;;;4.81;83.19;100685.06;1647689;86;21577;-90
2021/01/08 05:04:46;;;;;;;14.98;5.00;;;;;;;4.81;83.17;100683.73;1630382;87;21160;-90
2021/01/08 05:07:12;;;;;;;9.45;4.50;;;;;;;4.86;83.03;100697.25;1647654;87;21181;-90
2021/01/08 05:09:38;;;;;;;10.58;4.90;;;;;;;4.82;81.82;100704.04;1647708;87;21621;-90
2021/01/08 05:12:05;;;;;;;11.03;5.28;;;;;;;4.84;83.12;100694.49;1647661;86;20978;-90
2021/01/08 05:14:33;;;;;;;15.80;6.00;;;;;;;4.85;83.31;100701.45;1647578;87;21218;-91
2021/01/08 05:17:00;;;;;;;13.10;6.25;;;;;;;4.80;82.67;100707.99;1647512;87;21610;-90
2021/01/08 05:19:26;;;;;;;14.25;5.80;;;;;;;4.81;82.90;100706.95;1647553;87;21565;-90
2021/01/08 05:21:55;;;;;;;10.58;5.17;;;;;;;4.87;83.31;100716.22;1647567;87;21046;-91
2021/01/08 05:24:23;;;;;;;12.98;5.35;;;;;;;4.80;83.38;100718.14;1624871;87;21227;-90
2021/01/08 05:26:51;;;;;;;12.90;6.00;;;;;;;4.85;83.83;100724.96;1647627;87;21808;-90
2021/01/08 05:29:17;;;;;;;11.90;5.72;;;;;;;4.77;83.24;100729.27;1624697;87;21617;-90
2021/01/08 05:31:43;;;;;;;11.22;5.62;;;;;;;4.64;83.54;100728.83;1647643;86;21192;-90
2021/01/08 05:34:08;;;;;;;15.10;6.00;;;;;;;4.59;83.65;100731.36;1647499;87;20977;-90
2021/01/08 05:36:36;;;;;;;12.70;5.90;;;;;;;4.57;83.37;100740.61;1647666;86;21075;-91
2021/01/08 05:39:04;;;;;;;12.88;5.78;;;;;;;4.55;83.80;100740.81;1647553;86;21285;-91
2021/01/08 05:41:32;;;;;;;15.15;6.33;;;;;;;4.60;83.51;100754.33;1647601;86;20966;-90
2021/01/08 05:44:00;;;;;;;10.68;5.78;;;;;;;4.60;82.95;100753.00;1647656;86;21128;-90
2021/01/08 05:46:37;;;;;;;12.65;6.30;;;;;;;4.64;82.67;100752.85;1647441;86;21141;-90
2021/01/08 05:49:08;;;;;;;14.90;6.72;;;;;;;4.51;83.04;100760.45;1647635;86;21093;-90
2021/01/08 05:51:37;;;;;;;15.80;7.00;;;;;;;4.46;83.06;100769.61;1647637;86;21401;-91
2021/01/08 05:54:04;;;;;;;17.80;8.40;;;;;;;4.50;83.12;100774.83;1647401;86;21196;-90
2021/01/08 05:56:36;;;;;;;24.67;8.75;;;;;;;4.48;83.39;100781.41;1647604;86;21510;-91
2021/01/08 05:59:07;;;;;;;20.43;7.72;;;;;;;4.50;83.37;100782.84;1647625;87;21183;-91
2021/01/08 06:01:39;;;;;;;20.95;7.92;;;;;;;4.42;83.48;100787.09;1647593;86;21200;-91
2021/01/08 06:04:06;;;;;;;14.78;6.50;;;;;;;4.50;83.12;100799.34;1621207;87;21228;-89
2021/01/08 06:06:43;;;;;;;14.45;5.60;;;;;;;4.51;83.66;100800.47;1624687;87;21792;-91
2021/01/08 06:09:15;;;;;;;12.45;5.50;;;;;;;4.55;83.50;100810.20;1647602;87;21666;-91
2021/01/08 06:11:45;;;;;;;12.98;5.67;;;;;;;4.50;83.59;100812.68;1647621;86;21648;-91
2021/01/08 06:14:14;;;;;;;13.68;5.75;;;;;;;4.34;84.19;100814.02;1647607;87;21156;-91
2021/01/08 06:16:47;;;;;;;14.00;6.10;;;;;;;4.41;83.79;100815.30;1624873;87;21255;-90
2021/01/08 06:19:15;;;;;;;14.43;6.17;;;;;;;4.40;84.20;100815.02;1647749;86;21167;-90
2021/01/08 06:21:46;;;;;;;14.45;5.72;;;;;;;4.38;84.62;100825.88;1593132;89;21523;-91
2021/01/08 06:24:24;;;;;;;15.38;6.05;;;;;;;4.56;83.51;100834.53;1593094;87;21817;-91
2021/01/08 06:26:52;;;;;;;14.07;5.85;;;;;;;4.47;83.76;100837.97;1630712;88;21193;-90
2021/01/08 06:29:22;;;;;;;12.73;5.97;;;;;;;4.52;84.08;100843.46;1630666;88;21261;-90
2021/01/08 06:31:57;;;;;;;17.32;7.03;;;;;;;4.49;83.67;100847.89;1630687;88;21185;-90
2021/01/08 06:34:29;;;;;;;14.53;6.40;;;;;;;4.46;84.24;100847.51;1630470;87;21219;-91
2021/01/08 06:37:09;;;;;;;15.48;5.85;;;;;;;4.38;84.39;100851.23;1630993;88;21042;-91
2021/01/08 06:39:43;;;;;;;17.23;6.33;;;;;;;4.36;84.82;100855.16;1630704;87;21208;-90
2021/01/08 06:42:10;;;;;;;13.55;6.45;;;;;;;4.46;84.55;100849.66;1580523;90;21791;-90
2021/01/08 06:44:37;;;;;;;12.93;6.33;;;;;;;4.32;85.06;100857.41;1551008;92;21228;-90
2021/01/08 06:47:05;;;;;;;18.92;6.70;;;;;;;4.33;84.82;100857.73;1532863;93;21252;-91
2021/01/08 06:49:34;;;;;;;12.50;6.12;;;;;;;4.39;84.36;100862.75;1521162;94;21180;-92
2021/01/08 06:52:01;;;;;;;13.48;6.30;;;;;;;4.27;84.79;100862.06;1521423;94;21436;-91
2021/01/08 06:54:28;;;;;;;15.68;7.08;;;;;;;4.48;83.79;100862.80;1521424;94;21627;-91
2021/01/08 06:57:00;;;;;;;14.85;6.22;;;;;;;4.29;84.55;100873.36;1521570;94;21591;-90
2021/01/08 06:59:33;;;;;;;14.05;6.53;;;;;;;4.32;85.15;100872.09;1519195;94;21183;-91
2021/01/08 07:02:13;;;;;;;17.07;6.72;;;;;;;4.30;85.39;100878.17;1521608;94;21327;-91
2021/01/08 07:04:39;;;;;;;13.68;6.80;;;;;;;4.39;85.12;100869.41;1519583;94;21222;-92
2021/01/08 07:07:08;;;;;;;14.58;6.50;;;;;;;4.44;84.88;100877.09;1521465;94;21270;-91
2021/01/08 07:09:36;;;;;;;19.82;7.47;;;;;;;4.35;85.13;100875.66;1521355;94;21234;-91
2021/01/08 07:12:06;;;;;;;15.15;6.95;;;;;;;4.40;84.60;100891.86;1521279;94;21562;-90
2021/01/08 07:14:36;;;;;;;18.57;8.13;;;;;;;4.46;84.09;100892.34;1521475;94;21155;-93
2021/01/08 07:17:06;;;;;;;18.87;8.38;;;;;;;4.37;84.46;100893.63;1502606;94;21270;-91
2021/01/08 07:19:32;;;;;;;15.60;6.65;;;;;;;4.46;84.15;100894.20;1564887;91;21619;-91
2021/01/08 07:22:03;;;;;;;16.87;7.22;;;;;;;4.44;83.36;100898.44;1570806;91;21264;-92
2021/01/08 07:24:34;;;;;;;17.45;7.55;;;;;;;4.32;84.19;100902.77;1570788;90;21200;-91
2021/01/08 07:27:24;;;;;;;17.35;7.40;;;;;;;4.46;84.03;100902.21;1545524;92;21716;-89
2021/01/08 07:30:05;;;;;;;19.45;7.37;;;;;;;4.64;84.05;100900.17;1545473;92;21261;-91
2021/01/08 07:32:47;;;;;;;17.07;7.47;;;;;;;4.58;84.48;100918.37;1545663;92;21200;-92
2021/01/08 07:35:27;;;;;;;17.98;7.80;;;;;;;4.70;84.04;100908.14;1499526;95;21375;-91
2021/01/08 07:38:08;;;;;;;18.92;8.60;;;;;;;4.62;84.26;100895.56;1499499;95;21219;-90
2021/01/08 07:40:42;;;;;;;22.90;8.58;;;;;;;4.90;83.03;100923.25;1501391;95;21196;-92
2021/01/08 07:43:10;;;;;;;24.85;9.70;;;;;;;4.91;83.28;100923.55;1515816;94;21192;-91
2021/01/08 07:45:55;;;;;;;25.60;9.98;;;;;;;4.89;81.76;100931.78;1490489;96;21240;-92
2021/01/08 07:48:35;;;;;;;25.23;9.23;;;;;;;4.74;82.49;100933.41;1516016;94;21236;-92
2021/01/08 07:51:06;;;;;;;22.62;8.25;;;;;;;4.74;81.91;100937.92;1490441;96;21213;-92
2021/01/08 07:53:45;;;;;;;19.75;8.05;;;;;;;4.85;81.06;100945.23;1510252;94;21300;-92
2021/01/08 07:56:25;;;;;;;22.15;8.58;;;;;;;4.78;81.84;100944.47;1508567;95;21207;-93
2021/01/08 07:59:04;;;;;;;21.07;8.90;;;;;;;4.61;81.79;100940.12;1508638;95;21353;-93
2021/01/08 08:01:35;;;;;;;23.40;8.63;;;;;;;4.72;81.99;100947.98;1505580;95;21236;-93
2021/01/08 08:04:09;;;;;;;20.27;8.68;;;;;;;4.68;82.20;100947.60;1508372;95;21176;-92
2021/01/08 08:06:39;;;;;;;20.32;8.68;;;;;;;4.69;81.88;100952.42;1503653;95;21220;-95
2021/01/08 08:09:09;;;;;;;18.95;8.63;;;;;;;4.67;82.53;100955.80;1501071;95;21746;-93
2021/01/08 08:11:36;;;;;;;21.30;8.33;;;;;;;4.69;83.01;100953.23;1500567;94;21286;-93
2021/01/08 08:14:05;;;;;;;23.00;8.98;;;;;;;4.74;82.66;100949.42;1500328;95;21267;-93
2021/01/08 08:16:37;;;;;;;24.07;9.48;;;;;;;4.74;82.93;100953.42;1500352;95;21613;-93
2021/01/08 08:19:06;;;;;;;25.50;9.38;;;;;;;4.80;82.42;100952.28;1500529;95;21199;-94
2021/01/08 08:21:32;;;;;;;26.30;10.38;;;;;;;4.81;82.48;100956.05;1552597;91;21202;-95
2021/01/08 08:24:01;;;;;;;24.40;9.70;;;;;;;4.75;83.00;100948.38;1617709;87;21239;-92
2021/01/08 08:26:30;;;;;;;27.85;10.28;;;;;;;4.92;83.15;100963.92;1642715;87;21136;-93
2021/01/08 08:29:12;;;;;;;28.87;10.80;;;;;;;4.85;83.11;100965.78;1625963;87;21656;-94
2021/01/08 08:31:47;;;;;;;28.83;9.88;;;;;;;4.91;82.62;100969.78;1642823;87;21147;-94
2021/01/08 08:34:29;;;;;;;26.15;10.53;;;;;;;4.93;81.28;100968.22;1589081;90;21227;-93
2021/01/08 08:37:10;;;;;;;24.30;9.78;;;;;;;4.86;82.37;100973.59;1588077;90;21284;-93
2021/01/08 08:39:37;;;;;;;22.05;8.85;;;;;;;4.83;81.89;100962.53;1588138;90;21343;-92
2021/01/08 08:42:03;;;;;;;22.98;8.78;;;;;;;4.91;81.03;100968.94;1589212;90;21201;-93
2021/01/08 08:44:30;;;;;;;25.90;9.00;;;;;;;4.80;81.29;100967.78;1589006;90;21179;-94
2021/01/08 08:46:58;;;;;;;20.20;8.10;;;;;;;4.85;80.65;100963.94;1589066;90;21723;-95
2021/01/08 08:49:30;;;;;;;18.98;8.20;;;;;;;4.87;81.26;100963.21;1589204;90;21696;-94
2021/01/08 08:51:56;;;;;;;18.40;8.63;;;;;;;4.86;81.10;100962.11;1588822;90;21679;-94
2021/01/08 08:56:54;;;;;;;20.17;8.53;;;;;;;4.94;80.83;100967.17;1504181;95;21324;-92
2021/01/08 08:59:38;;;;;;;18.98;8.33;;;;;;;4.91;80.77;100971.12;1504029;95;21175;-92
2021/01/08 09:02:06;;;;;;;19.45;8.75;;;;;;;5.03;80.63;100965.92;1503010;95;21208;-94
2021/01/08 09:04:33;;;;;;;20.50;8.98;;;;;;;4.91;80.07;100971.12;1437277;99;21975;-95
2021/01/08 09:07:12;;;;;;;19.90;8.43;;;;;;;5.00;80.59;100973.84;1437366;99;21258;-92
2021/01/08 09:09:41;;;;;;;21.68;8.78;;;;;;;5.08;79.66;100971.42;1435591;99;21238;-93
2021/01/08 09:12:18;;;;;;;21.33;9.55;;;;;;;4.95;78.56;100962.97;1437587;99;21392;-93
2021/01/08 09:14:48;;;;;;;23.87;9.98;;;;;;;4.99;78.72;100968.70;1433054;99;21345;-92
2021/01/08 09:17:19;;;;;;;26.07;10.35;;;;;;;4.97;78.08;100963.59;1437571;99;21282;-92
2021/01/08 09:19:55;;;;;;;30.17;13.00;;;;;;;4.85;77.44;100961.78;1437365;96;21249;-92
2021/01/08 09:22:22;;;;;;;28.42;12.60;;;;;;;4.92;77.12;100962.59;1437454;99;21317;-93
2021/01/08 09:24:49;;;;;;;26.30;11.65;;;;;;;4.88;77.78;100964.88;1449063;97;21251;-91
2021/01/08 09:27:17;;;;;;;26.97;11.80;;;;;;;4.87;77.60;100965.07;1453026;97;21232;-93
2021/01/08 09:29:43;;;;;;;25.82;12.75;;;;;;;4.81;77.61;100970.73;1452708;97;21321;-90
2021/01/08 09:32:09;;;;;;;33.78;14.65;;;;;;;4.73;78.24;100965.63;1491193;95;21578;-91
2021/01/08 09:34:37;;;;;;;32.23;13.65;;;;;;;4.65;78.02;100968.56;1473655;95;21322;-90
2021/01/08 09:37:17;;;;;;;36.80;15.40;;;;;;;4.65;79.56;100961.89;1492334;95;21211;-90
2021/01/08 09:39:43;;;;;;;39.25;16.32;;;;;;;4.62;79.59;100967.13;1491990;95;22064;-91
2021/01/08 09:42:11;;;;;;;43.52;18.32;;;;;;;4.51;78.82;100969.93;1492071;95;21758;-91
2021/01/08 09:44:41;;;;;;;45.10;18.35;;;;;;;4.66;79.86;100963.52;1492096;95;21264;-92
2021/01/08 09:47:10;;;;;;;43.95;18.32;;;;;;;4.76;80.22;100962.05;1492126;95;21194;-91
2021/01/08 09:49:53;;;;;;;43.45;18.57;;;;;;;4.72;80.42;100963.48;1492114;95;21212;-92
2021/01/08 09:52:28;;;;;;;44.13;18.57;;;;;;;4.91;80.58;100952.42;1493460;93;21740;-93
2021/01/08 09:54:54;;;;;;;45.38;19.55;;;;;;;4.87;79.78;100957.88;1449713;97;21197;-92
2021/01/08 09:57:37;;;;;;;40.23;17.98;;;;;;;4.97;80.16;100946.72;1451761;98;21279;-93
2021/01/08 10:00:11;;;;;;;44.60;18.27;;;;;;;4.97;79.72;100942.22;1464562;94;21293;-93
2021/01/08 10:05:31;;;;;;;42.55;19.52;;;;;;;5.24;80.01;100937.53;1480696;96;21715;-93
2021/01/08 10:08:00;;;;;;;48.63;21.23;;;;;;;5.21;78.67;100935.81;1509870;93;21723;-93
2021/01/08 10:10:32;;;;;;;50.83;20.57;;;;;;;5.42;80.10;100939.98;1539365;93;21225;-93
2021/01/08 10:12:59;;;;;;;49.70;20.57;;;;;;;5.43;78.73;100945.61;1538899;93;21138;-93
2021/01/08 10:15:46;;;;;;;43.60;19.30;;;;;;;5.48;79.31;100945.79;1538318;92;21738;-92
2021/01/08 10:18:26;;;;;;;42.20;18.15;;;;;;;5.73;79.61;100947.12;1468335;97;21643;-93
2021/01/08 10:20:58;;;;;;;32.38;14.43;;;;;;;5.73;77.90;100939.62;1483361;95;21682;-92
2021/01/08 10:23:26;;;;;;;37.15;15.95;;;;;;;5.63;75.89;100940.94;1392418;102;22183;-95
2021/01/08 10:25:54;;;;;;;33.50;15.28;;;;;;;5.54;76.05;100936.90;1391887;103;21347;-93
2021/01/08 10:28:25;;;;;;;32.40;14.05;;;;;;;5.57;77.46;100940.47;1397706;102;21744;-93
2021/01/08 10:30:54;;;;;;;27.90;12.82;;;;;;;5.58;77.54;100941.28;1397755;102;21339;-94
2021/01/08 10:33:25;;;;;;;34.35;14.80;;;;;;;5.59;77.26;100942.91;1417070;100;21393;-94
2021/01/08 10:35:55;;;;;;;33.35;15.03;;;;;;;5.60;77.87;100943.23;1375168;103;21360;-94
2021/01/08 10:38:22;;;;;;;32.78;14.20;;;;;;;5.63;77.66;100942.80;1399699;102;21938;-94
2021/01/08 10:40:49;;;;;;;30.20;13.58;;;;;;;5.69;76.25;100942.73;1399814;102;21724;-93
2021/01/08 10:43:15;;;;;;;25.62;11.75;;;;;;;5.71;77.12;100946.53;1399734;102;21413;-93
2021/01/08 10:45:42;;;;;;;24.00;10.68;;;;;;;5.69;76.16;100951.27;1397461;102;21672;-94
2021/01/08 10:48:10;;;;;;;26.05;11.18;;;;;;;5.70;76.13;100951.04;1377634;104;21687;-93
2021/01/08 10:50:36;;;;;;;34.45;13.10;;;;;;;5.69;76.75;100953.95;1383011;102;21265;-93
2021/01/08 10:53:02;;;;;;;38.20;14.03;;;;;;;5.78;77.28;100959.32;1399558;102;21088;-93
2021/01/08 10:55:28;;;;;;;35.48;15.85;;;;;;;5.69;76.88;100948.60;1399609;102;21704;-92
2021/01/08 10:57:57;;;;;;;37.93;15.98;;;;;;;5.65;76.40;100948.75;1376961;104;21055;-92
2021/01/08 11:00:23;;;;;;;40.92;16.40;;;;;;;5.56;76.18;100948.20;1405822;100;21336;-92
2021/01/08 11:02:50;;;;;;;38.23;15.50;;;;;;;5.54;76.44;100938.76;1448236;98;21066;-91
2021/01/08 11:05:16;;;;;;;41.35;15.72;;;;;;;5.57;76.49;100933.79;1430514;100;21118;-94
2021/01/08 11:07:42;;;;;;;26.62;12.55;;;;;;;5.51;76.12;100926.64;1430688;99;21289;-92
2021/01/08 11:10:09;;;;;;;27.70;12.35;;;;;;;5.53;76.22;100931.76;1430622;100;21172;-92
2021/01/08 11:12:35;;;;;;;24.60;10.80;;;;;;;5.44;76.38;100925.37;1409600;101;21343;-92
2021/01/08 11:15:04;;;;;;;23.20;10.25;;;;;;;5.60;76.82;100932.02;1439661;99;21183;-91
2021/01/08 11:17:30;;;;;;;24.67;10.70;;;;;;;5.51;75.00;100933.33;1464546;98;21274;-92
2021/01/08 11:19:56;;;;;;;31.90;13.03;;;;;;;5.56;75.55;100924.14;1468501;95;21152;-93
2021/01/08 11:22:21;;;;;;;31.50;14.05;;;;;;;5.55;74.85;100924.34;1508687;95;22144;-91
2021/01/08 11:24:48;;;;;;;35.13;15.10;;;;;;;5.56;76.77;100922.80;1486715;94;21145;-91
2021/01/08 11:27:14;;;;;;;30.05;14.05;;;;;;;5.59;76.39;100926.38;1536469;93;21285;-92
2021/01/08 11:29:40;;;;;;;31.90;14.00;;;;;;;5.58;75.85;100922.05;1534772;93;21735;-92
2021/01/08 11:32:10;;;;;;;32.13;13.75;;;;;;;5.61;76.32;100924.28;1566200;87;21298;-91
2021/01/08 11:34:40;;;;;;;39.15;15.83;;;;;;;5.68;77.06;100928.27;1633406;87;21288;-91
2021/01/08 11:37:08;;;;;;;43.25;18.55;;;;;;;5.70;75.61;100922.97;1639507;87;21585;-90